Time;durP1;ratioP1;P1;durP2;ratioP2;P2;SDS_P1;SDS_P2;PMS_P1;PMS_P2;Temp;Humidity;BMP_temperature;BMP_pressure;BME280_temperature;BME280_humidity;BME280_pressure;Samples;Min_cycle;Max_cycle;Signal;HPM_P1;HPM_P2
2023/05/12 00:01:40;;;;;;;36.95;22.05;;;13.90;99.90;;;;;;5072019;28;20170;-47
2023/05/12 00:04:06;;;;;;;33.53;21.45;;;14.00;99.90;;;;;;5071850;28;20197;-47
2023/05/12 00:06:32;;;;;;;32.78;21.42;;;13.90;99.90;;;;;;5071364;28;20695;-47
2023/05/12 00:08:58;;;;;;;33.85;20.90;;;;;;;;;;5072311;28;20162;-47
2023/05/12 00:11:23;;;;;;;32.45;21.30;;;13.90;99.90;;;;;;5072028;28;20619;-47
2023/05/12 00:13:49;;;;;;;34.40;20.40;;;14.00;99.90;;;;;;5071886;28;20166;-47
2023/05/12 00:16:16;;;;;;;30.90;20.27;;;13.90;99.90;;;;;;5071817;28;20627;-47
2023/05/12 00:18:41;;;;;;;27.60;19.95;;;13.90;99.90;;;;;;5072073;28;20181;-47
2023/05/12 00:21:07;;;;;;;32.10;21.05;;;14.00;99.90;;;;;;5072016;28;20177;-47
2023/05/12 00:23:33;;;;;;;28.05;18.88;;;13.90;99.90;;;;;;5071930;28;20619;-47
2023/05/12 00:25:59;;;;;;;28.90;19.42;;;14.00;99.90;;;;;;5072170;28;20173;-47
2023/05/12 00:28:24;;;;;;;26.73;18.33;;;13.90;99.90;;;;;;5072019;28;20161;-47
2023/05/12 00:30:50;;;;;;;30.02;19.70;;;14.00;99.90;;;;;;5071632;28;20162;-47
2023/05/12 00:33:16;;;;;;;28.65;18.88;;;13.90;99.90;;;;;;5071623;28;20185;-47
2023/05/12 00:35:44;;;;;;;27.77;18.55;;;13.90;99.90;;;;;;5071706;28;20201;-47
2023/05/12 00:38:10;;;;;;;24.23;17.65;;;13.90;99.90;;;;;;5071482;28;20608;-47
2023/05/12 00:40:36;;;;;;;26.10;17.98;;;14.00;99.90;;;;;;5071417;28;20619;-47
2023/05/12 00:43:01;;;;;;;25.98;17.85;;;14.00;99.90;;;;;;5071549;28;20173;-47
2023/05/12 00:45:28;;;;;;;24.52;17.95;;;14.00;99.90;;;;;;5071843;28;20212;-47
2023/05/12 00:47:54;;;;;;;23.63;16.65;;;13.90;99.90;;;;;;5071471;28;20601;-47
2023/05/12 00:50:20;;;;;;;23.52;16.90;;;13.90;99.90;;;;;;5071686;28;20223;-47
2023/05/12 00:52:48;;;;;;;24.42;16.27;;;13.90;99.90;;;;;;5071461;28;20166;-47
2023/05/12 00:55:14;;;;;;;26.30;16.15;;;13.90;99.90;;;;;;5071431;28;20166;-47
2023/05/12 00:57:40;;;;;;;21.80;14.88;;;13.90;99.90;;;;;;5071633;28;20174;-47
2023/05/12 01:00:06;;;;;;;23.65;15.52;;;13.90;99.90;;;;;;5071306;28;20180;-47
2023/05/12 01:02:32;;;;;;;22.40;16.48;;;13.90;99.90;;;;;;5071283;28;20173;-46
2023/05/12 01:04:58;;;;;;;25.35;15.35;;;13.90;99.90;;;;;;5071406;28;20210;-47
2023/05/12 01:07:25;;;;;;;23.23;16.48;;;14.00;99.90;;;;;;5071284;28;20178;-47
2023/05/12 01:09:55;;;;;;;19.05;14.38;;;14.00;99.90;;;;;;5071230;28;20213;-47
2023/05/12 01:12:24;;;;;;;20.27;15.32;;;14.00;99.90;;;;;;5071512;28;20170;-47
2023/05/12 01:14:52;;;;;;;18.15;14.25;;;14.00;99.90;;;;;;5071215;28;20166;-47
2023/05/12 01:17:20;;;;;;;18.15;13.65;;;13.90;99.90;;;;;;5071204;28;20173;-47
2023/05/12 01:19:55;;;;;;;22.05;14.68;;;14.00;99.90;;;;;;5071182;28;20524;-47
2023/05/12 01:22:21;;;;;;;18.75;13.75;;;13.90;99.90;;;;;;5071104;28;20252;-47
2023/05/12 01:24:54;;;;;;;18.80;12.55;;;13.90;99.90;;;;;;5071026;28;20414;-47
2023/05/12 01:27:20;;;;;;;21.45;13.63;;;13.90;99.90;;;;;;5071048;28;20166;-47
2023/05/12 01:29:47;;;;;;;17.52;14.02;;;13.90;99.90;;;;;;5071318;28;20174;-47
2023/05/12 01:32:14;;;;;;;19.02;13.63;;;13.90;99.90;;;;;;5071079;28;20166;-47
2023/05/12 01:34:43;;;;;;;21.40;14.88;;;;;;;;;;5071048;28;20173;-47
2023/05/12 01:37:09;;;;;;;20.15;13.82;;;13.90;99.90;;;;;;5070962;28;20162;-47
2023/05/12 01:39:35;;;;;;;18.23;14.18;;;14.00;99.90;;;;;;5071022;28;20218;-47
2023/05/12 01:42:01;;;;;;;18.00;14.57;;;13.90;99.90;;;;;;5070906;28;20168;-47
2023/05/12 01:44:27;;;;;;;19.48;13.90;;;13.90;99.90;;;;;;5071207;28;20232;-47
2023/05/12 01:46:53;;;;;;;16.00;13.02;;;14.00;99.90;;;;;;5070933;28;20166;-47
2023/05/12 01:49:18;;;;;;;16.83;13.10;;;13.90;99.90;;;;;;5074226;28;20658;-47
2023/05/12 01:51:44;;;;;;;15.02;12.02;;;14.00;99.90;;;;;;5074606;28;20198;-47
2023/05/12 01:54:09;;;;;;;14.57;11.07;;;13.90;99.90;;;;;;5074508;28;20267;-47
2023/05/12 01:56:35;;;;;;;15.10;11.40;;;13.90;99.90;;;;;;5074382;28;20166;-47
2023/05/12 01:59:01;;;;;;;11.90;9.38;;;13.90;99.90;;;;;;5074634;28;20195;-47
2023/05/12 02:01:27;;;;;;;10.32;8.05;;;13.90;99.90;;;;;;5074744;28;20555;-47
2023/05/12 02:03:56;;;;;;;9.23;7.82;;;13.80;99.90;;;;;;5074507;28;20173;-47
2023/05/12 02:06:21;;;;;;;10.63;8.02;;;13.80;99.90;;;;;;5073977;28;20280;-47
2023/05/12 02:08:47;;;;;;;11.75;8.02;;;13.80;99.90;;;;;;5074159;28;20174;-47
2023/05/12 02:11:13;;;;;;;14.63;8.60;;;13.80;99.90;;;;;;5074177;28;20181;-47
2023/05/12 02:13:39;;;;;;;9.07;7.07;;;13.70;99.90;;;;;;5074270;28;20158;-47
2023/05/12 02:16:05;;;;;;;11.23;8.70;;;13.60;99.90;;;;;;5074309;28;20177;-47
2023/05/12 02:18:31;;;;;;;12.07;9.45;;;13.70;99.90;;;;;;5074021;28;20603;-47
2023/05/12 02:20:56;;;;;;;13.45;9.73;;;13.70;99.90;;;;;;5074507;28;20257;-47
2023/05/12 02:23:22;;;;;;;11.65;9.25;;;13.80;99.90;;;;;;5073912;28;20172;-47
2023/05/12 02:25:48;;;;;;;11.00;8.55;;;13.80;99.90;;;;;;5074067;28;20241;-48
2023/05/12 02:28:13;;;;;;;13.43;8.05;;;13.80;99.90;;;;;;5073947;28;20168;-47
2023/05/12 02:30:47;;;;;;;9.27;8.15;;;13.80;99.90;;;;;;5073860;28;20169;-47
2023/05/12 02:33:14;;;;;;;7.05;6.35;;;13.80;99.90;;;;;;5074085;28;20166;-48
2023/05/12 02:35:40;;;;;;;7.00;5.80;;;;;;;;;;5073972;28;20165;-48
2023/05/12 02:38:06;;;;;;;6.90;5.88;;;13.80;99.90;;;;;;5073714;28;20638;-47
2023/05/12 02:40:31;;;;;;;7.45;5.50;;;13.70;99.90;;;;;;5073554;28;20190;-46
2023/05/12 02:42:57;;;;;;;5.60;5.03;;;13.70;99.90;;;;;;5073600;28;20661;-47
2023/05/12 02:45:22;;;;;;;6.57;5.68;;;13.70;99.90;;;;;;5073465;28;20208;-47
2023/05/12 02:47:48;;;;;;;6.72;5.63;;;13.80;99.90;;;;;;5073497;28;20173;-48
2023/05/12 02:50:15;;;;;;;5.93;5.05;;;13.80;99.90;;;;;;5073438;28;20166;-49
2023/05/12 02:52:40;;;;;;;6.45;4.47;;;13.70;99.90;;;;;;5073349;28;20174;-47
2023/05/12 02:55:06;;;;;;;5.90;5.05;;;13.70;99.90;;;;;;5073610;28;20181;-48
2023/05/12 02:57:32;;;;;;;7.45;5.35;;;13.70;99.90;;;;;;5073340;28;20170;-48
2023/05/12 03:00:02;;;;;;;5.88;5.20;;;13.80;99.90;;;;;;5072759;28;20253;-48
2023/05/12 03:02:28;;;;;;;6.90;5.45;;;13.80;99.90;;;;;;5073550;28;20635;-47
2023/05/12 03:04:53;;;;;;;4.68;4.20;;;13.80;99.90;;;;;;5072137;28;20216;-47
2023/05/12 03:07:19;;;;;;;6.55;4.05;;;13.80;99.90;;;;;;5073189;28;20178;-48
2023/05/12 03:09:45;;;;;;;4.07;3.38;;;13.70;99.90;;;;;;5073097;28;20166;-48
2023/05/12 03:12:10;;;;;;;2.80;2.60;;;13.70;99.90;;;;;;5073102;28;20162;-47
2023/05/12 03:14:36;;;;;;;3.50;2.55;;;13.70;99.90;;;;;;5072955;28;20174;-47
2023/05/12 03:17:01;;;;;;;2.25;2.05;;;13.60;99.90;;;;;;5072847;28;20162;-47
2023/05/12 03:19:27;;;;;;;2.38;2.17;;;13.70;99.90;;;;;;5073360;28;20181;-47
2023/05/12 03:21:53;;;;;;;4.38;2.50;;;13.60;99.90;;;;;;5072794;28;20162;-47
2023/05/12 03:24:19;;;;;;;6.45;2.60;;;13.60;99.90;;;;;;5072631;28;20376;-48
2023/05/12 03:26:44;;;;;;;2.80;2.50;;;13.70;99.90;;;;;;5072734;28;20170;-49
2023/05/12 03:29:10;;;;;;;3.03;2.75;;;13.60;99.90;;;;;;5072707;28;20173;-48
2023/05/12 03:31:35;;;;;;;3.42;3.13;;;13.60;99.90;;;;;;5072665;28;20675;-48
2023/05/12 03:34:01;;;;;;;3.45;3.13;;;13.70;99.90;;;;;;5072877;28;20166;-47
2023/05/12 03:36:27;;;;;;;3.17;2.75;;;13.70;99.90;;;;;;5072916;28;20252;-48
2023/05/12 03:38:52;;;;;;;3.40;3.00;;;13.60;99.90;;;;;;5072515;28;20170;-47
2023/05/12 03:41:18;;;;;;;3.28;2.90;;;13.70;99.90;;;;;;5072457;28;20206;-48
2023/05/12 03:43:44;;;;;;;2.58;2.38;;;13.70;99.90;;;;;;5072337;28;20170;-48
2023/05/12 03:46:09;;;;;;;3.03;2.53;;;13.70;99.90;;;;;;5072389;28;20177;-47
2023/05/12 03:48:35;;;;;;;2.17;1.90;;;13.70;99.90;;;;;;5072331;28;20166;-48
2023/05/12 03:51:00;;;;;;;2.63;2.42;;;13.60;99.90;;;;;;5072273;28;20248;-48
2023/05/12 03:53:26;;;;;;;2.80;2.25;;;13.60;99.90;;;;;;5072756;28;20245;-48
2023/05/12 03:55:51;;;;;;;2.22;2.03;;;13.60;99.90;;;;;;5072258;28;20201;-47
2023/05/12 03:58:17;;;;;;;2.53;2.33;;;13.60;99.90;;;;;;5072161;28;20173;-48
2023/05/12 04:00:42;;;;;;;4.18;2.30;;;13.60;99.90;;;;;;5072082;28;20180;-48
2023/05/12 04:03:08;;;;;;;2.90;2.60;;;13.60;99.90;;;;;;5072103;28;20673;-47
2023/05/12 04:05:35;;;;;;;2.90;2.60;;;13.60;99.90;;;;;;5071851;28;20279;-47
2023/05/12 04:08:00;;;;;;;2.67;2.47;;;13.60;99.90;;;;;;5072064;28;20174;-47
2023/05/12 04:10:26;;;;;;;3.10;2.63;;;13.60;99.90;;;;;;5071979;28;20181;-47
2023/05/12 04:12:51;;;;;;;3.05;2.70;;;13.70;99.90;;;;;;5071978;28;20162;-50
2023/05/12 04:15:17;;;;;;;2.83;2.50;;;13.50;99.90;;;;;;5072190;28;20169;-50
2023/05/12 04:17:43;;;;;;;3.40;2.90;;;13.60;99.90;;;;;;5071855;28;20173;-49
2023/05/12 04:20:08;;;;;;;4.03;3.03;;;13.50;99.90;;;;;;5071970;28;20162;-49
2023/05/12 04:22:34;;;;;;;3.45;3.05;;;13.60;99.90;;;;;;5071879;28;20247;-49
2023/05/12 04:24:59;;;;;;;2.97;2.78;;;13.60;99.90;;;;;;5071859;28;20209;-49
2023/05/12 04:27:25;;;;;;;3.13;2.83;;;13.60;99.90;;;;;;5072067;28;20173;-49
2023/05/12 04:29:51;;;;;;;2.45;2.25;;;13.70;99.90;;;;;;5071683;28;20241;-49
2023/05/12 04:32:17;;;;;;;2.78;2.33;;;13.60;99.90;;;;;;5071632;28;20166;-49
2023/05/12 04:34:42;;;;;;;2.72;2.47;;;13.60;99.90;;;;;;5071960;28;20534;-49
2023/05/12 04:37:08;;;;;;;2.60;2.40;;;13.60;99.90;;;;;;5071780;28;20166;-50
2023/05/12 04:39:33;;;;;;;2.90;2.45;;;13.70;99.90;;;;;;5071602;28;20536;-48
2023/05/12 04:42:03;;;;;;;2.40;2.20;;;13.70;99.90;;;;;;5071647;28;20205;-49
2023/05/12 04:44:28;;;;;;;3.25;2.53;;;13.70;99.90;;;;;;5071472;28;20225;-49
2023/05/12 04:46:55;;;;;;;2.90;2.70;;;;;;;;;;5071867;28;20631;-49
2023/05/12 04:49:21;;;;;;;5.70;2.80;;;13.80;99.90;;;;;;5071472;28;20162;-48
2023/05/12 04:51:47;;;;;;;2.58;2.38;;;13.90;99.90;;;;;;5071417;28;20174;-48
2023/05/12 04:54:12;;;;;;;3.65;3.25;;;13.90;99.90;;;;;;5071668;28;20641;-49
2023/05/12 04:56:38;;;;;;;3.53;3.22;;;13.90;99.90;;;;;;5071496;28;20649;-48
2023/05/12 04:59:03;;;;;;;4.95;3.35;;;13.90;99.90;;;;;;5071335;28;20690;-49
2023/05/12 05:01:29;;;;;;;4.03;3.63;;;13.90;99.90;;;;;;5071388;28;20170;-49
2023/05/12 05:03:55;;;;;;;4.85;3.95;;;13.90;99.90;;;;;;5071603;28;20189;-49
2023/05/12 05:06:20;;;;;;;4.57;4.15;;;14.00;99.90;;;;;;5071205;28;20218;-49
2023/05/12 05:08:46;;;;;;;5.20;4.65;;;14.00;99.90;;;;;;5071275;28;20173;-47
2023/05/12 05:11:11;;;;;;;5.07;4.07;;;14.00;99.90;;;;;;5069949;28;20215;-47
2023/05/12 05:13:37;;;;;;;5.65;5.00;;;14.00;99.90;;;;;;5071257;28;20173;-49
2023/05/12 05:16:03;;;;;;;5.03;4.45;;;14.10;99.90;;;;;;5071466;28;20176;-49
2023/05/12 05:18:29;;;;;;;6.25;4.97;;;;;;;;;;5071417;28;20170;-48
2023/05/12 05:20:54;;;;;;;5.80;4.55;;;14.10;99.90;;;;;;5071633;28;20536;-48
2023/05/12 05:23:20;;;;;;;8.32;4.82;;;14.10;99.90;;;;;;5070612;28;20174;-49
2023/05/12 05:25:46;;;;;;;5.60;3.75;;;14.20;99.90;;;;;;5072654;28;20625;-49
2023/05/12 05:28:11;;;;;;;4.20;3.72;;;14.30;99.90;;;;;;5073350;28;20535;-49
2023/05/12 05:30:37;;;;;;;4.93;3.55;;;14.20;99.90;;;;;;5072988;28;20174;-48
2023/05/12 05:33:02;;;;;;;3.33;2.95;;;14.10;99.90;;;;;;5073340;28;20226;-48
2023/05/12 05:35:29;;;;;;;3.72;3.40;;;14.10;99.90;;;;;;5072906;28;20174;-47
2023/05/12 05:37:55;;;;;;;3.13;2.83;;;14.20;99.90;;;;;;5073463;28;20628;-51
2023/05/12 05:40:22;;;;;;;4.88;3.33;;;;;;;;;;5073008;28;20263;-48
2023/05/12 05:42:47;;;;;;;3.75;3.22;;;14.30;99.90;;;;;;5072445;28;20170;-48
2023/05/12 05:45:13;;;;;;;5.25;3.05;;;14.40;99.90;;;;;;5072273;28;20708;-48
2023/05/12 05:47:39;;;;;;;2.53;2.33;;;14.50;99.90;;;;;;5072549;28;20254;-47
2023/05/12 05:50:05;;;;;;;4.07;2.83;;;;;;;;;;5072966;28;20180;-48
2023/05/12 05:52:31;;;;;;;3.60;2.90;;;14.50;99.90;;;;;;5072836;28;20170;-49
2023/05/12 05:54:56;;;;;;;2.85;2.53;;;14.50;99.90;;;;;;5073119;28;20245;-49
2023/05/12 05:57:22;;;;;;;3.22;2.42;;;;;;;;;;5072654;28;20509;-47
2023/05/12 05:59:48;;;;;;;4.93;2.80;;;14.40;99.90;;;;;;5072895;28;20181;-49
2023/05/12 06:02:14;;;;;;;3.08;2.75;;;14.50;99.90;;;;;;5072592;28;20177;-44
2023/05/12 06:04:40;;;;;;;3.17;2.55;;;;;;;;;;5072705;28;20585;-47
2023/05/12 06:07:05;;;;;;;3.92;3.25;;;14.50;99.90;;;;;;5072314;28;20605;-48
2023/05/12 06:09:31;;;;;;;7.15;3.35;;;14.50;99.90;;;;;;5072286;28;20592;-46
2023/05/12 06:11:56;;;;;;;5.05;3.03;;;14.70;99.90;;;;;;5072914;28;20162;-48
2023/05/12 06:14:22;;;;;;;2.72;2.53;;;14.70;99.90;;;;;;5072194;28;20162;-46
2023/05/12 06:16:47;;;;;;;3.22;2.80;;;14.70;99.90;;;;;;5072221;28;20176;-45
2023/05/12 06:19:14;;;;;;;4.15;2.83;;;;;;;;;;5072261;28;20250;-46
2023/05/12 06:21:40;;;;;;;3.10;2.42;;;;;;;;;;5072211;28;20281;-48
2023/05/12 06:24:06;;;;;;;3.88;3.13;;;14.80;99.90;;;;;;5071972;28;20726;-46
2023/05/12 06:26:32;;;;;;;4.93;2.78;;;;;;;;;;5072008;28;20173;-47
2023/05/12 06:28:57;;;;;;;3.90;2.55;;;15.00;99.90;;;;;;5072500;28;20166;-48
2023/05/12 06:31:23;;;;;;;5.75;3.28;;;;;;;;;;5072500;28;20264;-48
2023/05/12 06:33:49;;;;;;;3.08;2.65;;;14.80;99.90;;;;;;5071613;28;20173;-46
2023/05/12 06:36:15;;;;;;;3.97;2.60;;;;;;;;;;5071992;28;20177;-48
2023/05/12 06:38:40;;;;;;;3.72;2.45;;;14.80;99.90;;;;;;5071889;28;20618;-48
2023/05/12 06:41:06;;;;;;;5.40;2.55;;;14.80;99.90;;;;;;5071875;28;20181;-46
2023/05/12 06:43:31;;;;;;;4.25;3.15;;;14.70;99.90;;;;;;5071553;28;20304;-46
2023/05/12 06:45:57;;;;;;;3.35;2.97;;;;;;;;;;5072139;28;20251;-45
2023/05/12 06:48:23;;;;;;;5.35;3.20;;;14.80;99.90;;;;;;5072164;28;20177;-45
2023/05/12 06:50:49;;;;;;;4.65;3.17;;;;;;;;;;5071587;28;20631;-46
2023/05/12 06:53:15;;;;;;;4.47;2.88;;;14.70;99.90;;;;;;5071703;28;20170;-45
2023/05/12 06:55:42;;;;;;;8.38;2.67;;;;;;;;;;5071025;28;20177;-46
2023/05/12 06:58:09;;;;;;;3.95;2.80;;;;;;;;;;5071763;28;20192;-46
2023/05/12 07:00:34;;;;;;;4.07;3.08;;;;;;;;;;5071457;28;20189;-46
2023/05/12 07:03:00;;;;;;;5.82;3.22;;;15.10;99.90;;;;;;5071508;28;20674;-48
2023/05/12 07:05:26;;;;;;;5.45;3.20;;;;;;;;;;5071455;28;20761;-47
2023/05/12 07:07:52;;;;;;;4.78;2.45;;;;;;;;;;5071396;28;20217;-46
2023/05/12 07:10:19;;;;;;;2.88;2.67;;;15.30;99.90;;;;;;5071348;28;20178;-46
2023/05/12 07:12:46;;;;;;;4.47;2.63;;;;;;;;;;5071482;28;20174;-49
2023/05/12 07:15:11;;;;;;;4.15;2.78;;;15.30;99.90;;;;;;5071006;28;20196;-46
2023/05/12 07:17:37;;;;;;;3.70;2.97;;;15.60;99.90;;;;;;5071061;28;20194;-46
2023/05/12 07:20:03;;;;;;;2.97;2.67;;;15.70;99.90;;;;;;5071012;28;20198;-47
2023/05/12 07:22:31;;;;;;;4.45;2.90;;;15.80;99.90;;;;;;5071053;28;20165;-49
2023/05/12 07:24:56;;;;;;;2.95;2.75;;;16.00;99.90;;;;;;5071215;28;20528;-47
2023/05/12 07:27:22;;;;;;;3.53;2.63;;;;;;;;;;5070866;28;20711;-45
2023/05/12 07:29:48;;;;;;;3.70;2.50;;;;;;;;;;5070877;28;20170;-45
2023/05/12 07:32:14;;;;;;;3.28;2.42;;;16.00;99.90;;;;;;5070707;28;20177;-49
2023/05/12 07:34:40;;;;;;;2.40;2.20;;;;;;;;;;5070695;28;20162;-45
2023/05/12 07:37:06;;;;;;;3.05;2.80;;;;;;;;;;5070305;28;20717;-52
2023/05/12 07:39:32;;;;;;;2.95;2.53;;;16.10;99.90;;;;;;5070635;28;20170;-49
2023/05/12 07:41:58;;;;;;;2.70;2.50;;;;;;;;;;5070961;28;20247;-45
2023/05/12 07:44:24;;;;;;;3.05;2.80;;;16.00;99.90;;;;;;5070910;28;20202;-45
2023/05/12 07:46:50;;;;;;;5.35;2.80;;;15.80;99.90;;;;;;5069422;28;20245;-46
2023/05/12 07:49:15;;;;;;;3.55;3.22;;;15.70;99.90;;;;;;5070161;28;20652;-46
2023/05/12 07:51:41;;;;;;;3.20;2.90;;;;;;;;;;5070439;28;20177;-50
2023/05/12 07:54:07;;;;;;;3.53;2.80;;;15.70;99.90;;;;;;5069906;28;20174;-44
2023/05/12 07:56:33;;;;;;;6.43;2.80;;;15.70;99.90;;;;;;5070557;28;20245;-46
2023/05/12 07:58:58;;;;;;;3.03;2.72;;;;;;;;;;5070288;28;20197;-46
2023/05/12 08:01:24;;;;;;;3.38;3.08;;;;;;;;;;5070626;28;20266;-45
2023/05/12 08:03:50;;;;;;;3.83;2.60;;;15.70;99.90;;;;;;5068612;28;20175;-45
2023/05/12 08:06:16;;;;;;;4.97;2.38;;;15.70;99.90;;;;;;5067188;28;20362;-51
2023/05/12 08:08:42;;;;;;;5.97;2.90;;;15.70;99.90;;;;;;5065722;28;20628;-47
2023/05/12 08:11:08;;;;;;;3.00;2.70;;;;;;;;;;5070445;28;20228;-45
2023/05/12 08:13:36;;;;;;;3.28;2.38;;;15.90;99.90;;;;;;5069915;28;20162;-45
2023/05/12 08:16:02;;;;;;;2.20;2.00;;;;;;;;;;5070240;28;20181;-45
2023/05/12 08:18:28;;;;;;;3.45;2.20;;;;;;;;;;5070057;28;20534;-46
2023/05/12 08:20:54;;;;;;;2.78;2.20;;;;;;;;;;5070274;28;20182;-44
2023/05/12 08:23:20;;;;;;;2.70;2.20;;;;;;;;;;5069810;28;20245;-50
2023/05/12 08:25:47;;;;;;;3.45;2.00;;;;;;;;;;5069503;28;20289;-49
2023/05/12 08:28:13;;;;;;;3.90;2.30;;;;;;;;;;5069834;28;20661;-51
2023/05/12 08:30:40;;;;;;;4.65;1.90;;;16.30;99.90;;;;;;5070203;28;20247;-49
2023/05/12 08:33:05;;;;;;;2.08;1.80;;;16.50;99.90;;;;;;5069940;28;20189;-50
2023/05/12 08:35:31;;;;;;;2.60;2.05;;;;;;;;;;5069710;28;20635;-48
2023/05/12 08:38:00;;;;;;;2.40;2.03;;;;;;;;;;5070000;28;20177;-48
2023/05/12 08:40:29;;;;;;;2.20;1.90;;;16.80;99.90;;;;;;5070028;28;20642;-48
2023/05/12 08:43:06;;;;;;;2.03;1.80;;;16.90;99.90;;;;;;5070002;28;20631;-49
2023/05/12 08:45:36;;;;;;;2.53;2.20;;;16.90;99.90;;;;;;5069668;28;20213;-48
2023/05/12 08:48:03;;;;;;;4.68;2.35;;;16.80;99.90;;;;;;5069498;28;20197;-45
2023/05/12 08:50:30;;;;;;;2.03;1.73;;;;;;;;;;5069598;28;20225;-47
2023/05/12 08:52:57;;;;;;;2.28;2.08;;;17.10;99.90;;;;;;5069756;28;20177;-48
2023/05/12 08:55:23;;;;;;;2.95;2.03;;;;;;;;;;5069758;28;20170;-48
2023/05/12 08:57:49;;;;;;;3.25;1.80;;;17.10;99.90;;;;;;5072165;28;20219;-46
2023/05/12 09:00:15;;;;;;;3.63;2.17;;;17.20;99.90;;;;;;5073762;28;20612;-45
2023/05/12 09:02:42;;;;;;;3.42;1.70;;;17.30;99.90;;;;;;5073800;28;20169;-47
2023/05/12 09:05:08;;;;;;;2.17;1.80;;;17.40;99.90;;;;;;5073212;28;20209;-44
2023/05/12 09:07:38;;;;;;;3.88;1.70;;;17.40;99.90;;;;;;5073380;28;20162;-45
2023/05/12 09:10:06;;;;;;;6.53;1.88;;;17.70;99.90;;;;;;5073447;28;20263;-45
2023/05/12 09:12:35;;;;;;;3.45;1.80;;;17.90;99.90;;;;;;5073734;28;20162;-45
2023/05/12 09:15:09;;;;;;;3.70;1.90;;;17.90;99.90;;;;;;5073380;28;20181;-44
2023/05/12 09:17:35;;;;;;;2.20;2.00;;;18.10;99.90;;;;;;5073614;28;20545;-49
2023/05/12 09:20:02;;;;;;;3.30;2.13;;;18.00;99.90;;;;;;5073326;28;20158;-48
2023/05/12 09:22:34;;;;;;;2.97;1.90;;;18.20;99.90;;;;;;5073560;28;20284;-44
2023/05/12 09:25:00;;;;;;;2.40;1.90;;;;;;;;;;5073435;28;20209;-46
2023/05/12 09:27:27;;;;;;;2.50;1.77;;;18.00;99.90;;;;;;5073481;28;20537;-45
2023/05/12 09:29:53;;;;;;;4.63;2.00;;;;;;;;;;5073876;28;20185;-46
2023/05/12 09:32:32;;;;;;;2.75;1.90;;;18.20;99.90;;;;;;5073127;28;20158;-46
2023/05/12 09:35:06;;;;;;;2.53;1.80;;;18.40;99.90;;;;;;5073341;28;20181;-44
2023/05/12 09:37:33;;;;;;;1.70;1.60;;;18.30;99.90;;;;;;5072911;28;20173;-45
2023/05/12 09:40:04;;;;;;;2.08;1.95;;;18.60;99.90;;;;;;5073198;28;20513;-46
2023/05/12 09:42:32;;;;;;;4.43;2.00;;;18.60;99.90;;;;;;5072821;28;20166;-46
2023/05/12 09:45:02;;;;;;;2.13;1.92;;;18.80;99.90;;;;;;5073073;28;20209;-46
2023/05/12 09:47:28;;;;;;;3.50;1.60;;;;;;;;;;5072990;28;20180;-46
2023/05/12 09:49:56;;;;;;;3.47;1.75;;;18.70;99.90;;;;;;5073227;28;20177;-50
2023/05/12 09:52:22;;;;;;;2.42;1.88;;;18.80;99.90;;;;;;5072969;28;20176;-46
2023/05/12 09:54:47;;;;;;;2.00;1.80;;;18.80;99.90;;;;;;5072682;28;20174;-48
2023/05/12 09:57:15;;;;;;;3.45;2.10;;;18.90;99.90;;;;;;5071493;28;20169;-46
2023/05/12 09:59:43;;;;;;;4.85;2.00;;;19.30;99.90;;;;;;5072779;28;20176;-48
2023/05/12 10:02:12;;;;;;;2.20;2.00;;;19.30;99.90;;;;;;5073222;28;20597;-49
2023/05/12 10:04:48;;;;;;;3.78;2.00;;;19.40;99.90;;;;;;5072425;28;20554;-46
2023/05/12 10:07:15;;;;;;;1.90;1.80;;;19.60;99.90;;;;;;5072273;28;20709;-48
2023/05/12 10:09:43;;;;;;;4.13;2.00;;;19.70;99.90;;;;;;5071896;28;20178;-47
2023/05/12 10:12:09;;;;;;;5.85;1.98;;;;;;;;;;5072728;28;20184;-47
2023/05/12 10:14:36;;;;;;;3.10;2.55;;;20.00;99.90;;;;;;5072329;28;20166;-47
2023/05/12 10:17:02;;;;;;;2.25;2.05;;;;;;;;;;5072289;28;20261;-48
2023/05/12 10:19:29;;;;;;;2.88;2.25;;;20.30;99.90;;;;;;5072478;28;20213;-48
2023/05/12 10:21:56;;;;;;;4.65;2.38;;;20.10;99.90;;;;;;5072583;28;20541;-47
2023/05/12 10:24:26;;;;;;;6.38;2.33;;;20.10;99.90;;;;;;5072697;28;20281;-47
2023/05/12 10:26:56;;;;;;;3.70;2.30;;;20.50;99.90;;;;;;5072413;28;20174;-49
2023/05/12 10:29:28;;;;;;;4.53;2.30;;;;;;;;;;5072357;28;20170;-47
2023/05/12 10:31:56;;;;;;;2.22;2.03;;;20.20;99.90;;;;;;5072386;28;20162;-48
2023/05/12 10:34:22;;;;;;;2.42;2.22;;;20.90;99.90;;;;;;5072297;28;20173;-48
2023/05/12 10:36:49;;;;;;;2.40;2.20;;;21.00;99.90;;;;;;5071938;28;20174;-48
2023/05/12 10:39:15;;;;;;;2.40;2.13;;;20.70;99.90;;;;;;5071882;28;20812;-48
2023/05/12 10:41:41;;;;;;;4.53;2.08;;;20.80;99.90;;;;;;5071801;28;20253;-48
2023/05/12 10:44:10;;;;;;;2.72;2.53;;;20.80;99.90;;;;;;5072035;28;20196;-47
2023/05/12 10:46:37;;;;;;;3.67;2.40;;;20.50;99.90;;;;;;5071824;28;20267;-47
2023/05/12 10:49:08;;;;;;;6.45;2.20;;;20.70;99.90;;;;;;5071665;28;20181;-47
2023/05/12 10:51:58;;;;;;;4.90;2.05;;;20.60;99.90;;;;;;5071725;28;20176;-47
2023/05/12 10:54:24;;;;;;;2.40;2.20;;;20.60;99.90;;;;;;5071806;28;20541;-47
2023/05/12 10:56:51;;;;;;;3.33;1.88;;;20.90;99.90;;;;;;5071813;28;20170;-48
2023/05/12 10:59:17;;;;;;;5.53;2.15;;;;;;;;;;5071525;28;20304;-46
2023/05/12 11:02:01;;;;;;;3.10;2.13;;;22.00;99.90;;;;;;5071664;28;20253;-47
2023/05/12 11:04:40;;;;;;;5.70;2.22;;;22.00;99.90;;;;;;5071213;28;20201;-46
2023/05/12 11:07:08;;;;;;;3.55;2.00;;;;;;;;;;5071271;28;20267;-47
2023/05/12 11:09:41;;;;;;;2.50;2.30;;;21.70;99.90;;;;;;5071294;28;20741;-47
2023/05/12 11:12:08;;;;;;;2.40;2.20;;;21.80;99.90;;;;;;5071241;28;20174;-47
2023/05/12 11:14:38;;;;;;;4.22;2.45;;;21.70;99.90;;;;;;5071026;28;20514;-48
2023/05/12 11:17:04;;;;;;;3.53;2.60;;;21.10;99.90;;;;;;5072123;28;20252;-46
2023/05/12 11:19:31;;;;;;;6.05;2.53;;;20.60;99.90;;;;;;5071158;28;20170;-47
2023/05/12 11:21:57;;;;;;;4.22;3.03;;;;;;;;;;5070689;28;20170;-47
2023/05/12 11:24:23;;;;;;;3.65;2.60;;;20.70;99.90;;;;;;5072025;28;20307;-50
2023/05/12 11:26:52;;;;;;;2.60;2.40;;;20.60;99.90;;;;;;5071451;28;20173;-47
2023/05/12 11:29:18;;;;;;;5.53;2.55;;;21.00;99.90;;;;;;5070924;28;20256;-47
2023/05/12 11:31:48;;;;;;;2.85;2.63;;;21.30;99.90;;;;;;5071011;28;20721;-47
2023/05/12 11:34:14;;;;;;;3.03;2.78;;;21.20;99.90;;;;;;5070819;28;20169;-48
2023/05/12 11:36:42;;;;;;;3.10;2.80;;;21.30;99.90;;;;;;5070674;28;20188;-47
2023/05/12 11:39:14;;;;;;;2.95;2.05;;;21.20;99.90;;;;;;5070565;28;20506;-47
2023/05/12 11:41:40;;;;;;;3.05;2.53;;;21.10;99.90;;;;;;5070482;28;20165;-46
2023/05/12 11:44:17;;;;;;;3.42;2.67;;;21.10;99.90;;;;;;5070453;28;20165;-46
2023/05/12 11:46:56;;;;;;;4.93;2.60;;;21.00;99.90;;;;;;5070541;28;20189;-47
2023/05/12 11:49:22;;;;;;;2.80;2.45;;;21.00;99.90;;;;;;5071141;28;20238;-46
2023/05/12 11:51:50;;;;;;;3.17;2.30;;;21.00;99.90;;;;;;5070702;28;20225;-47
2023/05/12 11:54:16;;;;;;;2.58;2.38;;;;;;;;;;5070337;28;20157;-47
2023/05/12 11:56:52;;;;;;;5.75;2.60;;;21.00;99.90;;;;;;5070274;28;20627;-48
2023/05/12 11:59:34;;;;;;;2.83;2.00;;;21.30;99.90;;;;;;5070634;28;20260;-49
2023/05/12 12:02:01;;;;;;;5.13;2.60;;;21.30;99.90;;;;;;5070247;28;20638;-48
2023/05/12 12:04:35;;;;;;;3.78;2.08;;;21.40;99.90;;;;;;5070006;28;20627;-53
2023/05/12 12:07:00;;;;;;;3.33;2.35;;;21.50;99.90;;;;;;5069924;28;20705;-46
2023/05/12 12:09:40;;;;;;;2.97;2.40;;;;;;;;;;5070174;28;20166;-46
2023/05/12 12:12:07;;;;;;;5.70;2.17;;;21.90;99.90;;;;;;5070065;28;20200;-46
2023/05/12 12:14:34;;;;;;;4.65;2.55;;;;;;;;;;5070044;28;20257;-46
2023/05/12 12:17:00;;;;;;;2.45;2.25;;;22.20;99.90;;;;;;5069939;28;20170;-46
2023/05/12 12:19:27;;;;;;;4.65;2.47;;;22.10;99.90;;;;;;5070321;28;20661;-46
2023/05/12 12:21:56;;;;;;;2.83;2.10;;;22.10;99.90;;;;;;5070645;28;20580;-47
2023/05/12 12:24:22;;;;;;;4.82;2.30;;;22.10;99.90;;;;;;5070406;28;20243;-46
2023/05/12 12:26:48;;;;;;;4.95;2.45;;;22.20;99.90;;;;;;5069781;28;20667;-46
2023/05/12 12:29:14;;;;;;;3.70;2.35;;;;;;;;;;5069826;28;20180;-48
2023/05/12 12:31:40;;;;;;;2.90;2.50;;;23.00;99.90;;;;;;5069432;28;20161;-47
2023/05/12 12:34:06;;;;;;;2.30;2.08;;;22.80;99.90;;;;;;5069971;28;20170;-47
2023/05/12 12:36:31;;;;;;;3.63;2.40;;;23.20;99.90;;;;;;5069759;28;20700;-47
2023/05/12 12:38:57;;;;;;;2.63;2.38;;;;;;;;;;5070003;28;20192;-46
2023/05/12 12:41:24;;;;;;;2.50;2.30;;;;;;;;;;5070045;28;20177;-47
2023/05/12 12:43:50;;;;;;;5.50;2.40;;;22.60;99.90;;;;;;5069552;28;20630;-46
2023/05/12 12:46:16;;;;;;;5.90;2.80;;;;;;;;;;5069575;28;20207;-47
2023/05/12 12:48:42;;;;;;;2.75;2.55;;;;;;;;;;5069575;28;20256;-46
2023/05/12 12:51:07;;;;;;;3.03;2.15;;;22.20;99.90;;;;;;5069628;28;20181;-48
2023/05/12 12:53:34;;;;;;;3.80;2.47;;;22.00;99.90;;;;;;5069441;28;20177;-46
2023/05/12 12:55:59;;;;;;;3.95;2.30;;;21.50;99.90;;;;;;5069828;28;20218;-46
2023/05/12 12:58:26;;;;;;;5.30;2.08;;;;;;;;;;5069844;28;20525;-46
2023/05/12 13:00:52;;;;;;;3.75;2.40;;;;;;;;;;5070508;28;20169;-47